createdAt,value
2017-10-31T00:00:53.588Z,6.69
2017-10-31T00:01:53.574Z,6.71
2017-10-31T00:02:53.554Z,6.73
2017-10-31T00:03:53.548Z,6.72
2017-10-31T00:04:53.494Z,6.72
2017-10-31T00:05:53.477Z,6.73
2017-10-31T00:06:53.448Z,6.69
2017-10-31T00:07:53.427Z,6.68
2017-10-31T00:08:53.399Z,6.71
2017-10-31T00:09:53.379Z,6.69
2017-10-31T00:10:53.339Z,6.72
2017-10-31T00:11:53.324Z,6.72
2017-10-31T00:12:53.293Z,6.76
2017-10-31T00:13:53.270Z,6.78
2017-10-31T00:14:53.255Z,6.72
2017-10-31T00:15:53.218Z,6.76
2017-10-31T00:16:53.194Z,6.78
2017-10-31T00:17:53.178Z,6.76
2017-10-31T00:18:53.137Z,6.76
2017-10-31T00:19:53.114Z,6.69
2017-10-31T00:20:53.099Z,6.78
2017-10-31T00:21:53.070Z,6.73
2017-10-31T00:22:53.039Z,6.81
2017-10-31T00:23:53.014Z,6.75
2017-10-31T00:24:52.988Z,6.73
2017-10-31T00:25:52.352Z,6.75
2017-10-31T00:26:52.617Z,6.73
2017-10-31T00:27:52.923Z,6.79
2017-10-31T00:28:52.891Z,6.64
2017-10-31T00:29:52.544Z,6.71
2017-10-31T00:30:52.856Z,6.68
2017-10-31T00:31:52.818Z,6.69
2017-10-31T00:32:52.803Z,6.68
2017-10-31T00:33:52.761Z,6.73
2017-10-31T00:34:52.745Z,6.75
2017-10-31T00:35:52.723Z,6.71
2017-10-31T00:36:52.365Z,6.73
2017-10-31T00:37:52.663Z,6.68
2017-10-31T00:38:52.642Z,6.72
2017-10-31T00:39:52.620Z,6.76
2017-10-31T00:40:52.585Z,6.76
2017-10-31T00:41:52.571Z,6.75
2017-10-31T00:42:52.548Z,6.73
2017-10-31T00:43:52.197Z,6.72
2017-10-31T00:44:52.493Z,6.87
2017-10-31T00:45:52.466Z,6.82
2017-10-31T00:46:52.442Z,6.86
2017-10-31T00:47:52.095Z,6.94
2017-10-31T00:48:52.397Z,6.86
2017-10-31T00:49:52.364Z,6.87
2017-10-31T00:50:52.352Z,6.94
2017-10-31T00:51:52.008Z,6.87
2017-10-31T00:52:51.962Z,6.91
2017-10-31T00:53:52.257Z,6.87
2017-10-31T00:54:52.234Z,6.86
2017-10-31T00:55:52.218Z,6.86
2017-10-31T00:56:51.867Z,6.9
2017-10-31T00:57:52.512Z,6.9
2017-10-31T00:58:52.132Z,6.83
2017-10-31T00:59:52.117Z,6.82
2017-10-31T01:00:52.084Z,6.86
2017-10-31T01:01:52.065Z,6.86
2017-10-31T01:02:52.038Z,6.79
2017-10-31T01:03:52.017Z,6.81
2017-10-31T01:04:51.983Z,6.82
2017-10-31T01:05:51.965Z,6.82
2017-10-31T01:06:51.944Z,6.76
2017-10-31T01:07:51.928Z,6.73
2017-10-31T01:08:51.890Z,6.71
2017-10-31T01:09:51.866Z,6.82
2017-10-31T01:10:51.522Z,6.78
2017-10-31T01:11:51.819Z,6.78
2017-10-31T01:12:51.783Z,6.78
2017-10-31T01:13:51.448Z,6.81
2017-10-31T01:14:51.739Z,6.78
2017-10-31T01:15:51.709Z,6.75
2017-10-31T01:16:51.699Z,6.83
2017-10-31T01:17:51.662Z,6.79
2017-10-31T01:18:51.328Z,6.78
2017-10-31T01:19:51.617Z,6.78
2017-10-31T01:20:51.586Z,6.73
2017-10-31T01:21:51.559Z,6.63
2017-10-31T01:22:51.542Z,6.64
2017-10-31T01:23:51.511Z,6.69
2017-10-31T01:24:51.487Z,6.73
2017-10-31T01:25:51.460Z,6.68
2017-10-31T01:26:51.437Z,6.64
2017-10-31T01:27:51.409Z,6.69
2017-10-31T01:28:51.382Z,6.68
2017-10-31T01:29:51.363Z,6.68
2017-10-31T01:30:51.334Z,6.73
2017-10-31T01:31:51.313Z,6.71
2017-10-31T01:32:51.285Z,6.78
2017-10-31T01:33:51.260Z,6.73
2017-10-31T01:34:51.241Z,6.64
2017-10-31T01:35:51.205Z,6.64
2017-10-31T01:36:51.194Z,6.72
2017-10-31T01:37:51.159Z,6.79
2017-10-31T01:38:51.128Z,6.76
2017-10-31T01:39:51.118Z,6.76
2017-10-31T01:40:51.088Z,6.82
2017-10-31T01:41:51.060Z,6.78
2017-10-31T01:42:50.733Z,6.75
2017-10-31T01:43:51.007Z,6.73
2017-10-31T01:44:51.006Z,6.82
2017-10-31T01:45:50.963Z,6.78
2017-10-31T01:46:50.944Z,6.76
2017-10-31T01:47:50.907Z,6.86
2017-10-31T01:48:50.569Z,6.83
2017-10-31T01:49:50.852Z,6.89
2017-10-31T01:50:50.517Z,6.86
2017-10-31T01:51:50.805Z,6.86
2017-10-31T01:52:50.783Z,6.89
2017-10-31T01:53:50.762Z,6.91
2017-10-31T01:54:50.738Z,6.91
2017-10-31T01:55:50.709Z,6.87
2017-10-31T01:56:50.682Z,6.91
2017-10-31T01:57:50.677Z,6.86
2017-10-31T01:58:50.638Z,6.89
2017-10-31T01:59:50.616Z,6.89
2017-10-31T02:00:50.589Z,6.86
2017-10-31T02:01:50.240Z,6.89
2017-10-31T02:02:50.533Z,6.87
2017-10-31T02:03:50.512Z,7
2017-10-31T02:04:50.166Z,7.01
2017-10-31T02:05:50.465Z,6.97
2017-10-31T02:06:50.434Z,7
2017-10-31T02:07:50.410Z,7.04
2017-10-31T02:08:50.380Z,7.01
2017-10-31T02:09:50.355Z,7.05
2017-10-31T02:10:50.333Z,7.05
2017-10-31T02:11:50.310Z,7.11
2017-10-31T02:12:50.285Z,7.09
2017-10-31T02:13:50.262Z,7.04
2017-10-31T02:14:50.241Z,7
2017-10-31T02:15:50.205Z,7
2017-10-31T02:16:50.186Z,7.05
2017-10-31T02:17:50.156Z,7.04
2017-10-31T02:18:50.162Z,6.97
2017-10-31T02:19:50.108Z,6.99
2017-10-31T02:20:50.086Z,7
2017-10-31T02:21:50.061Z,6.91
2017-10-31T02:22:49.718Z,6.89
2017-10-31T02:23:50.006Z,6.99
2017-10-31T02:24:49.990Z,6.93
2017-10-31T02:25:49.958Z,7
2017-10-31T02:26:49.931Z,7.08
2017-10-31T02:27:49.910Z,7.04
2017-10-31T02:28:49.886Z,7.04
2017-10-31T02:29:49.864Z,7.11
2017-10-31T02:30:49.521Z,7.09
2017-10-31T02:31:50.173Z,7.08
2017-10-31T02:32:49.792Z,7.04
2017-10-31T02:33:49.765Z,7.07
2017-10-31T02:34:49.742Z,7.05
2017-10-31T02:35:49.709Z,7.08
2017-10-31T02:36:49.689Z,7.05
2017-10-31T02:37:49.658Z,7.11
2017-10-31T02:38:49.631Z,7.11
2017-10-31T02:39:49.612Z,7.09
2017-10-31T02:40:49.586Z,7.08
2017-10-31T02:41:49.570Z,7.15
2017-10-31T02:42:49.891Z,7.16
2017-10-31T02:43:49.508Z,7.15
2017-10-31T02:44:49.504Z,7.09
2017-10-31T02:45:49.464Z,7.11
2017-10-31T02:46:49.442Z,7.05
2017-10-31T02:47:49.410Z,7.04
2017-10-31T02:48:49.387Z,7.12
2017-10-31T02:49:49.363Z,7.07
2017-10-31T02:50:49.356Z,7
2017-10-31T02:51:49.309Z,6.97
2017-10-31T02:52:49.278Z,6.9
2017-10-31T02:53:49.259Z,6.89
2017-10-31T02:54:49.233Z,6.94
2017-10-31T02:55:49.208Z,6.91
2017-10-31T02:56:49.183Z,6.9
2017-10-31T02:57:49.180Z,6.91
2017-10-31T02:58:49.138Z,6.93
2017-10-31T02:59:49.117Z,6.89
2017-10-31T03:00:49.100Z,6.94
2017-10-31T03:01:49.071Z,6.9
2017-10-31T03:02:49.043Z,6.9
2017-10-31T03:03:49.009Z,6.94
2017-10-31T03:04:48.993Z,6.91
2017-10-31T03:05:48.954Z,6.87
2017-10-31T03:06:48.613Z,6.87
2017-10-31T03:07:48.908Z,6.87
2017-10-31T03:08:48.879Z,6.93
2017-10-31T03:09:48.858Z,6.99
2017-10-31T03:10:48.840Z,6.99
2017-10-31T03:11:48.815Z,6.87
2017-10-31T03:12:48.783Z,6.9
2017-10-31T03:13:48.768Z,6.87
2017-10-31T03:14:48.733Z,6.91
2017-10-31T03:15:48.706Z,6.9
2017-10-31T03:16:48.686Z,6.9
2017-10-31T03:17:48.669Z,6.86
2017-10-31T03:18:48.640Z,6.86
2017-10-31T03:19:48.611Z,6.89
2017-10-31T03:20:48.609Z,6.87
2017-10-31T03:21:48.558Z,6.89
2017-10-31T03:22:48.247Z,6.91
2017-10-31T03:23:48.234Z,6.9
2017-10-31T03:24:48.166Z,6.87
2017-10-31T03:25:48.457Z,6.79
2017-10-31T03:26:48.439Z,6.9
2017-10-31T03:27:48.416Z,6.79
2017-10-31T03:28:48.402Z,6.78
2017-10-31T03:29:48.358Z,6.76
2017-10-31T03:30:48.019Z,6.72
2017-10-31T03:31:48.335Z,6.79
2017-10-31T03:32:48.289Z,6.73
2017-10-31T03:33:48.268Z,6.78
2017-10-31T03:34:48.249Z,6.75
2017-10-31T03:35:47.891Z,6.82
2017-10-31T03:36:48.186Z,6.78
2017-10-31T03:37:47.868Z,6.75
2017-10-31T03:38:48.153Z,6.82
2017-10-31T03:39:48.117Z,6.76
2017-10-31T03:40:48.082Z,6.73
2017-10-31T03:41:48.054Z,6.79
2017-10-31T03:42:48.038Z,6.75
2017-10-31T03:43:48.018Z,6.78
2017-10-31T03:44:47.662Z,6.79
2017-10-31T03:45:47.964Z,6.79
2017-10-31T03:46:47.934Z,6.72
2017-10-31T03:47:47.958Z,6.89
2017-10-31T03:48:47.563Z,6.75
2017-10-31T03:49:47.865Z,6.76
2017-10-31T03:50:47.849Z,6.93
2017-10-31T03:51:47.488Z,6.78
2017-10-31T03:52:47.781Z,6.89
2017-10-31T03:53:47.765Z,6.71
2017-10-31T03:54:47.728Z,6.73
2017-10-31T03:55:47.707Z,6.86
2017-10-31T03:56:47.684Z,6.86
2017-10-31T03:57:47.655Z,6.83
2017-10-31T03:58:47.637Z,6.73
2017-10-31T03:59:47.608Z,6.91
2017-10-31T04:00:47.265Z,6.91
2017-10-31T04:01:47.595Z,6.91
2017-10-31T04:02:47.555Z,6.86
2017-10-31T04:03:47.507Z,6.91
2017-10-31T04:04:47.482Z,6.86
2017-10-31T04:05:47.467Z,6.89
2017-10-31T04:06:47.437Z,6.9
2017-10-31T04:07:47.411Z,6.93
2017-10-31T04:08:47.377Z,6.86
2017-10-31T04:09:47.376Z,6.87
2017-10-31T04:10:47.348Z,6.89
2017-10-31T04:11:47.307Z,6.87
2017-10-31T04:12:47.280Z,6.87
2017-10-31T04:13:47.259Z,6.78
2017-10-31T04:14:47.235Z,6.78
2017-10-31T04:15:47.217Z,6.83
2017-10-31T04:16:47.190Z,6.76
2017-10-31T04:17:46.844Z,6.76
2017-10-31T04:18:46.821Z,6.72
2017-10-31T04:19:47.123Z,6.75
2017-10-31T04:20:47.091Z,6.68
2017-10-31T04:21:47.075Z,6.63
2017-10-31T04:22:47.047Z,6.68
2017-10-31T04:23:47.007Z,6.58
2017-10-31T04:24:46.977Z,6.65
2017-10-31T04:25:46.951Z,6.54
2017-10-31T04:26:46.936Z,6.6
2017-10-31T04:27:46.906Z,6.5
2017-10-31T04:28:46.885Z,6.57
2017-10-31T04:29:46.864Z,6.57
2017-10-31T04:30:46.833Z,6.61
2017-10-31T04:31:46.499Z,6.54
2017-10-31T04:32:46.779Z,6.53
2017-10-31T04:33:46.441Z,6.51
2017-10-31T04:34:46.734Z,6.55
2017-10-31T04:35:46.711Z,6.55
2017-10-31T04:36:46.692Z,6.55
2017-10-31T04:37:46.670Z,6.57
2017-10-31T04:38:46.644Z,6.58
2017-10-31T04:39:46.284Z,6.57
2017-10-31T04:40:46.269Z,6.58
2017-10-31T04:41:46.237Z,6.55
2017-10-31T04:42:46.897Z,6.57
2017-10-31T04:43:46.507Z,6.55
2017-10-31T04:44:46.480Z,6.58
2017-10-31T04:45:46.466Z,6.55
2017-10-31T04:46:46.111Z,6.64
2017-10-31T04:47:46.404Z,6.55
2017-10-31T04:48:46.387Z,6.53
2017-10-31T04:49:46.358Z,6.61
2017-10-31T04:50:46.328Z,6.61
2017-10-31T04:51:46.304Z,6.6
2017-10-31T04:52:46.284Z,6.69
2017-10-31T04:53:46.254Z,6.69
2017-10-31T04:54:46.228Z,6.73
2017-10-31T04:55:46.217Z,6.64
2017-10-31T04:56:46.539Z,6.73
2017-10-31T04:57:46.159Z,6.72
2017-10-31T04:58:45.809Z,6.75
2017-10-31T04:59:46.116Z,6.69
2017-10-31T05:00:46.124Z,6.82
2017-10-31T05:01:46.052Z,6.73
2017-10-31T05:02:46.049Z,6.72
2017-10-31T05:03:46.004Z,6.79
2017-10-31T05:04:45.985Z,6.76
2017-10-31T05:05:45.963Z,6.73
2017-10-31T05:06:45.939Z,6.83
2017-10-31T05:07:45.904Z,6.79
2017-10-31T05:08:45.880Z,6.79
2017-10-31T05:09:45.855Z,6.71
2017-10-31T05:10:45.552Z,6.79
2017-10-31T05:11:45.803Z,6.76
2017-10-31T05:12:45.781Z,6.73
2017-10-31T05:13:45.754Z,6.63
2017-10-31T05:14:45.731Z,6.63
2017-10-31T05:15:45.703Z,6.75
2017-10-31T05:16:45.675Z,6.64
2017-10-31T05:17:45.657Z,6.69
2017-10-31T05:18:45.622Z,6.64
2017-10-31T05:19:45.602Z,6.71
2017-10-31T05:20:45.586Z,6.69
2017-10-31T05:21:45.559Z,6.73
2017-10-31T05:22:45.530Z,6.68
2017-10-31T05:23:45.506Z,6.69
2017-10-31T05:24:45.499Z,6.73
2017-10-31T05:25:45.497Z,6.71
2017-10-31T05:26:45.107Z,6.69
2017-10-31T05:27:45.091Z,6.63
2017-10-31T05:28:45.384Z,6.64
2017-10-31T05:29:45.352Z,6.6
2017-10-31T05:30:45.328Z,6.61
2017-10-31T05:31:45.305Z,6.65
2017-10-31T05:32:45.279Z,6.58
2017-10-31T05:33:45.255Z,6.55
2017-10-31T05:34:45.226Z,6.54
2017-10-31T05:35:45.233Z,6.58
2017-10-31T05:36:45.180Z,6.53
2017-10-31T05:37:45.152Z,6.57
2017-10-31T05:38:45.135Z,6.5
2017-10-31T05:39:45.105Z,6.58
2017-10-31T05:40:45.078Z,6.54
2017-10-31T05:41:45.052Z,6.58
2017-10-31T05:42:45.027Z,6.6
2017-10-31T05:43:45.002Z,6.58
2017-10-31T05:44:44.977Z,6.57
2017-10-31T05:45:44.950Z,6.61
2017-10-31T05:46:44.609Z,6.64
2017-10-31T05:47:44.913Z,6.71
2017-10-31T05:48:44.877Z,6.65
2017-10-31T05:49:44.854Z,6.69
2017-10-31T05:50:44.825Z,6.71
2017-10-31T05:51:44.809Z,6.73
2017-10-31T05:52:44.782Z,6.76
2017-10-31T05:53:44.752Z,6.72
2017-10-31T05:54:44.744Z,6.71
2017-10-31T05:55:44.379Z,6.63
2017-10-31T05:56:44.690Z,6.76
2017-10-31T05:57:44.654Z,6.79
2017-10-31T05:58:44.624Z,6.75
2017-10-31T05:59:44.600Z,6.78
2017-10-31T06:00:44.571Z,6.81
2017-10-31T06:01:44.558Z,6.78
2017-10-31T06:02:44.533Z,6.89
2017-10-31T06:03:44.507Z,6.87
2017-10-31T06:04:44.483Z,6.86
2017-10-31T06:05:44.450Z,6.86
2017-10-31T06:06:44.428Z,6.73
2017-10-31T06:07:44.398Z,6.78
2017-10-31T06:08:44.483Z,6.86
2017-10-31T06:09:44.351Z,6.87
2017-10-31T06:10:44.330Z,6.87
2017-10-31T06:11:44.298Z,6.9
2017-10-31T06:12:44.277Z,6.76
2017-10-31T06:13:44.250Z,6.76
2017-10-31T06:14:44.222Z,6.76
2017-10-31T06:15:44.197Z,6.76
2017-10-31T06:16:44.177Z,6.83
2017-10-31T06:17:44.145Z,6.76
2017-10-31T06:18:44.130Z,6.76
2017-10-31T06:19:44.100Z,6.76
2017-10-31T06:20:44.068Z,6.75
2017-10-31T06:21:44.052Z,6.78
2017-10-31T06:22:44.038Z,6.87
2017-10-31T06:23:43.683Z,6.82
2017-10-31T06:24:43.968Z,6.96
2017-10-31T06:25:43.950Z,6.89
2017-10-31T06:26:43.609Z,6.93
2017-10-31T06:27:43.894Z,6.9
2017-10-31T06:28:43.874Z,6.89
2017-10-31T06:29:43.854Z,6.91
2017-10-31T06:30:43.821Z,6.89
2017-10-31T06:31:43.810Z,6.93
2017-10-31T06:32:43.776Z,7.04
2017-10-31T06:33:43.435Z,6.99
2017-10-31T06:34:43.725Z,6.99
2017-10-31T06:35:43.699Z,6.9
2017-10-31T06:36:43.358Z,6.99
2017-10-31T06:37:43.665Z,7
2017-10-31T06:38:43.639Z,6.91
2017-10-31T06:39:43.601Z,6.87
2017-10-31T06:40:43.568Z,6.93
2017-10-31T06:41:43.547Z,6.86
2017-10-31T06:42:43.210Z,7
2017-10-31T06:43:43.491Z,7
2017-10-31T06:44:43.477Z,6.91
2017-10-31T06:45:43.444Z,6.86
2017-10-31T06:46:43.425Z,6.82
2017-10-31T06:47:43.404Z,6.83
2017-10-31T06:48:43.384Z,6.76
2017-10-31T06:49:43.348Z,6.78
2017-10-31T06:50:43.326Z,6.76
2017-10-31T06:51:43.297Z,6.83
2017-10-31T06:52:43.278Z,6.86
2017-10-31T06:53:43.257Z,6.9
2017-10-31T06:54:43.225Z,6.96
2017-10-31T06:55:43.224Z,6.87
2017-10-31T06:56:42.862Z,6.93
2017-10-31T06:57:43.195Z,6.97
2017-10-31T06:58:43.132Z,6.99
2017-10-31T06:59:43.106Z,7.07
2017-10-31T07:00:42.756Z,7.07
2017-10-31T07:01:43.043Z,7.14
2017-10-31T07:02:43.030Z,7.16
2017-10-31T07:03:43.001Z,7.26
2017-10-31T07:04:42.979Z,7.29
2017-10-31T07:05:42.960Z,7.32
2017-10-31T07:06:42.922Z,7.52
2017-10-31T07:07:42.585Z,7.57
2017-10-31T07:08:42.562Z,7.48
2017-10-31T07:09:42.860Z,7.58
2017-10-31T07:10:42.829Z,7.51
2017-10-31T07:11:43.159Z,7.81
2017-10-31T07:12:42.778Z,7.71
2017-10-31T07:13:42.753Z,7.82
2017-10-31T07:14:42.739Z,8
2017-10-31T07:15:42.712Z,7.94
2017-10-31T07:16:42.682Z,7.99
2017-10-31T07:17:42.673Z,8
2017-10-31T07:18:42.304Z,7.99
2017-10-31T07:19:42.605Z,8.09
2017-10-31T07:20:42.585Z,8.09
2017-10-31T07:21:42.236Z,8.12
2017-10-31T07:22:42.533Z,8.09
2017-10-31T07:23:42.540Z,8.13
2017-10-31T07:24:42.489Z,8.12
2017-10-31T07:25:42.146Z,8.07
2017-10-31T07:26:42.435Z,8.13
2017-10-31T07:27:42.409Z,8.2
2017-10-31T07:28:42.399Z,8.18
2017-10-31T07:29:42.386Z,8.24
2017-10-31T07:30:42.349Z,8.24
2017-10-31T07:31:42.313Z,8.36
2017-10-31T07:32:42.298Z,8.4
2017-10-31T07:33:42.274Z,8.47
2017-10-31T07:34:42.243Z,8.42
2017-10-31T07:35:42.229Z,8.49
2017-10-31T07:36:41.880Z,8.54
2017-10-31T07:37:42.173Z,8.54
2017-10-31T07:38:42.164Z,8.52
2017-10-31T07:39:42.132Z,8.5
2017-10-31T07:40:42.114Z,8.67
2017-10-31T07:41:42.076Z,8.71
2017-10-31T07:42:42.072Z,8.63
2017-10-31T07:43:42.030Z,8.54
2017-10-31T07:44:41.694Z,8.58
2017-10-31T07:45:41.984Z,8.57
2017-10-31T07:46:41.959Z,8.63
2017-10-31T07:47:41.945Z,8.61
2017-10-31T07:48:41.910Z,8.7
2017-10-31T07:49:41.891Z,8.65
2017-10-31T07:50:41.870Z,8.67
2017-10-31T07:51:41.840Z,8.6
2017-10-31T07:52:41.815Z,8.64
2017-10-31T07:53:41.469Z,8.54
2017-10-31T07:54:41.442Z,8.54
2017-10-31T07:55:41.744Z,8.57
2017-10-31T07:56:41.728Z,8.52
2017-10-31T07:57:41.375Z,8.52
2017-10-31T07:58:41.678Z,8.54
2017-10-31T07:59:41.327Z,8.55
2017-10-31T08:00:41.621Z,8.54
2017-10-31T08:01:41.606Z,8.49
2017-10-31T08:02:41.577Z,8.49
2017-10-31T08:03:41.572Z,8.5
2017-10-31T08:04:41.534Z,8.57
2017-10-31T08:05:41.508Z,8.61
2017-10-31T08:06:41.483Z,8.58
2017-10-31T08:07:41.452Z,8.5
2017-10-31T08:08:41.112Z,8.54
2017-10-31T08:09:41.412Z,8.5
2017-10-31T08:10:41.382Z,8.57
2017-10-31T08:11:41.360Z,8.55
2017-10-31T08:12:41.338Z,8.55
2017-10-31T08:13:40.989Z,8.57
2017-10-31T08:14:41.290Z,8.55
2017-10-31T08:15:41.278Z,8.57
2017-10-31T08:16:40.920Z,8.57
2017-10-31T08:17:41.220Z,8.55
2017-10-31T08:18:41.191Z,8.52
2017-10-31T08:19:41.179Z,8.6
2017-10-31T08:20:41.141Z,8.55
2017-10-31T08:21:41.123Z,8.7
2017-10-31T08:22:41.092Z,8.63
2017-10-31T08:23:41.076Z,8.65
2017-10-31T08:24:41.048Z,8.8
2017-10-31T08:25:41.027Z,8.79
2017-10-31T08:26:41.003Z,8.71
2017-10-31T08:27:40.976Z,8.79
2017-10-31T08:28:40.949Z,8.71
2017-10-31T08:29:40.933Z,8.89
2017-10-31T08:30:40.903Z,8.93
2017-10-31T08:31:40.879Z,8.86
2017-10-31T08:32:40.854Z,8.96
2017-10-31T08:33:40.835Z,8.91
2017-10-31T08:34:41.158Z,9.01
2017-10-31T08:35:40.783Z,9.06
2017-10-31T08:36:40.760Z,9
2017-10-31T08:37:40.418Z,9.01
2017-10-31T08:38:40.399Z,9.03
2017-10-31T08:39:40.706Z,9.01
2017-10-31T08:40:40.677Z,9.1
2017-10-31T08:41:40.647Z,9.1
2017-10-31T08:42:40.618Z,9.12
2017-10-31T08:43:40.603Z,9.26
2017-10-31T08:44:40.571Z,9.22
2017-10-31T08:45:40.563Z,9.22
2017-10-31T08:46:40.523Z,9.23
2017-10-31T08:47:40.188Z,9.26
2017-10-31T08:48:40.504Z,9.17
2017-10-31T08:49:40.460Z,9.2
2017-10-31T08:50:40.433Z,9.2
2017-10-31T08:51:40.416Z,9.23
2017-10-31T08:52:40.390Z,9.19
2017-10-31T08:53:40.359Z,9.2
2017-10-31T08:54:40.336Z,9.13
2017-10-31T08:55:40.004Z,9.13
2017-10-31T08:56:40.299Z,9.13
2017-10-31T08:57:40.267Z,9.08
2017-10-31T08:58:40.242Z,9.17
2017-10-31T08:59:40.218Z,9.12
2017-10-31T09:00:40.196Z,9.1
2017-10-31T09:01:40.171Z,9.2
2017-10-31T09:02:40.151Z,9.06
2017-10-31T09:03:40.128Z,9.16
2017-10-31T09:04:40.101Z,9.2
2017-10-31T09:05:40.082Z,9.22
2017-10-31T09:06:40.061Z,9.24
2017-10-31T09:07:40.028Z,9.27
2017-10-31T09:08:40.008Z,9.24
2017-10-31T09:09:39.985Z,9.24
2017-10-31T09:10:39.960Z,9.22
2017-10-31T09:11:39.974Z,9.19
2017-10-31T09:12:39.910Z,9.23
2017-10-31T09:13:39.892Z,9.23
2017-10-31T09:14:39.874Z,9.24
2017-10-31T09:15:39.837Z,9.23
2017-10-31T09:16:39.830Z,9.2
2017-10-31T09:17:41.210Z,9.2
2017-10-31T09:18:39.775Z,9.22
2017-10-31T09:19:39.745Z,9.23
2017-10-31T09:20:39.723Z,9.23
2017-10-31T09:21:39.709Z,9.23
2017-10-31T09:22:40.035Z,9.22
2017-10-31T09:23:39.652Z,9.24
2017-10-31T09:24:39.626Z,9.19
2017-10-31T09:25:39.619Z,9.2
2017-10-31T09:26:39.265Z,9.24
2017-10-31T09:27:39.560Z,9.27
2017-10-31T09:28:39.546Z,9.23
2017-10-31T09:29:39.514Z,9.23
2017-10-31T09:30:39.491Z,9.26
2017-10-31T09:31:39.469Z,9.24
2017-10-31T09:32:39.452Z,9.26
2017-10-31T09:33:39.096Z,9.22
2017-10-31T09:34:39.399Z,9.22
2017-10-31T09:35:39.373Z,9.22
2017-10-31T09:36:39.056Z,9.24
2017-10-31T09:37:39.326Z,9.24
2017-10-31T09:38:38.982Z,9.2
2017-10-31T09:39:39.273Z,9.24
2017-10-31T09:40:39.253Z,9.27
2017-10-31T09:41:39.247Z,9.37
2017-10-31T09:42:38.887Z,9.37
2017-10-31T09:43:39.184Z,9.34
2017-10-31T09:44:39.156Z,9.44
2017-10-31T09:45:39.133Z,9.41
2017-10-31T09:46:39.109Z,9.38
2017-10-31T09:47:39.094Z,9.41
2017-10-31T09:48:38.752Z,9.49
2017-10-31T09:49:38.718Z,9.41
2017-10-31T09:50:39.019Z,9.42
2017-10-31T09:51:38.676Z,9.45
2017-10-31T09:52:38.970Z,9.48
2017-10-31T09:53:38.951Z,9.44
2017-10-31T09:54:38.932Z,9.52
2017-10-31T09:55:38.901Z,9.56
2017-10-31T09:56:38.870Z,9.56
2017-10-31T09:57:38.859Z,9.65
2017-10-31T09:58:38.833Z,9.59
2017-10-31T09:59:38.799Z,9.7
2017-10-31T10:00:38.786Z,9.7
2017-10-31T10:01:38.756Z,9.71
2017-10-31T10:02:38.737Z,9.77
2017-10-31T10:03:38.710Z,9.75
2017-10-31T10:04:38.688Z,9.85
2017-10-31T10:05:38.662Z,9.83
2017-10-31T10:06:38.642Z,9.86
2017-10-31T10:07:38.622Z,9.99
2017-10-31T10:08:38.597Z,9.93
2017-10-31T10:09:38.572Z,9.99
2017-10-31T10:10:38.551Z,10.06
2017-10-31T10:11:38.517Z,10.01
2017-10-31T10:12:38.494Z,9.96
2017-10-31T10:13:38.163Z,9.99
2017-10-31T10:14:38.456Z,10.09
2017-10-31T10:15:38.429Z,10.11
2017-10-31T10:16:38.407Z,10.09
2017-10-31T10:17:38.410Z,10.09
2017-10-31T10:18:38.043Z,10.22
2017-10-31T10:19:38.338Z,10.17
2017-10-31T10:20:38.316Z,10.24
2017-10-31T10:21:38.296Z,10.16
2017-10-31T10:22:38.268Z,10.17
2017-10-31T10:23:38.243Z,10.16
2017-10-31T10:24:38.228Z,10.16
2017-10-31T10:25:38.193Z,10.14
2017-10-31T10:26:38.179Z,10.25
2017-10-31T10:27:38.153Z,10.13
2017-10-31T10:28:38.125Z,10.14
2017-10-31T10:29:38.119Z,10.14
2017-10-31T10:30:38.086Z,10.24
2017-10-31T10:31:37.736Z,10.25
2017-10-31T10:32:38.047Z,10.17
2017-10-31T10:33:38.015Z,10.11
2017-10-31T10:34:37.989Z,10.18
2017-10-31T10:35:37.965Z,10.18
2017-10-31T10:36:37.625Z,10.25
2017-10-31T10:37:37.927Z,10.16
2017-10-31T10:38:37.257Z,10.2
2017-10-31T10:39:37.876Z,10.17
2017-10-31T10:40:37.859Z,10.18
2017-10-31T10:41:37.826Z,10.17
2017-10-31T10:42:37.492Z,10.16
2017-10-31T10:43:37.780Z,10.18
2017-10-31T10:44:37.756Z,10.24
2017-10-31T10:45:37.743Z,10.11
2017-10-31T10:46:37.714Z,10.13
2017-10-31T10:47:37.693Z,10.07
2017-10-31T10:48:37.659Z,10.13
2017-10-31T10:49:37.652Z,10.09
2017-10-31T10:50:37.636Z,10.07
2017-10-31T10:51:37.591Z,10.1
2017-10-31T10:52:37.575Z,10.07
2017-10-31T10:53:37.231Z,10.07
2017-10-31T10:54:36.885Z,10.1
2017-10-31T10:55:37.507Z,10.09
2017-10-31T10:56:37.482Z,10.11
2017-10-31T10:57:37.474Z,10.14
2017-10-31T10:58:37.433Z,10.25
2017-10-31T10:59:37.413Z,10.22
2017-10-31T11:00:37.068Z,10.25
2017-10-31T11:01:37.045Z,10.16
2017-10-31T11:02:37.338Z,10.17
2017-10-31T11:03:37.320Z,10.17
2017-10-31T11:04:37.295Z,10.18
2017-10-31T11:05:37.270Z,10.13
2017-10-31T11:06:37.254Z,10.18
2017-10-31T11:07:37.248Z,10.16
2017-10-31T11:08:36.874Z,10.18
2017-10-31T11:09:37.177Z,10.14
2017-10-31T11:10:37.153Z,10.25
2017-10-31T11:11:37.151Z,10.28
2017-10-31T11:12:37.104Z,10.25
2017-10-31T11:13:37.083Z,10.29
2017-10-31T11:14:37.067Z,10.43
2017-10-31T11:15:37.422Z,10.43
2017-10-31T11:16:37.027Z,10.49
2017-10-31T11:17:36.991Z,10.46
2017-10-31T11:18:36.643Z,10.47
2017-10-31T11:19:36.953Z,10.6
2017-10-31T11:20:36.921Z,10.62
2017-10-31T11:21:36.905Z,10.66
2017-10-31T11:22:36.877Z,10.55
2017-10-31T11:23:36.854Z,10.68
2017-10-31T11:24:36.821Z,10.58
2017-10-31T11:25:36.812Z,10.65
2017-10-31T11:26:36.791Z,10.75
2017-10-31T11:27:36.119Z,10.76
2017-10-31T11:28:36.734Z,10.68
2017-10-31T11:29:36.714Z,10.69
2017-10-31T11:30:36.691Z,10.72
2017-10-31T11:31:36.670Z,10.76
2017-10-31T11:32:36.649Z,10.84
2017-10-31T11:33:36.628Z,10.87
2017-10-31T11:34:36.617Z,10.78
2017-10-31T11:35:36.580Z,10.9
2017-10-31T11:36:36.552Z,10.94
2017-10-31T11:37:36.533Z,10.84
2017-10-31T11:38:36.508Z,10.93
2017-10-31T11:39:36.487Z,10.95
2017-10-31T11:40:36.468Z,10.98
2017-10-31T11:41:36.447Z,11.01
2017-10-31T11:42:36.418Z,11.03
2017-10-31T11:43:36.741Z,11.03
2017-10-31T11:44:36.372Z,11.06
2017-10-31T11:45:36.348Z,11.06
2017-10-31T11:46:36.324Z,11.06
2017-10-31T11:47:36.498Z,11.21
2017-10-31T11:48:36.286Z,11.27
2017-10-31T11:49:36.271Z,11.17
2017-10-31T11:50:36.229Z,11.33
2017-10-31T11:51:37.329Z,11.26
2017-10-31T11:52:36.969Z,11.24
2017-10-31T11:53:36.917Z,11.33
2017-10-31T11:54:36.545Z,11.38
2017-10-31T11:55:36.910Z,11.16
2017-10-31T11:56:37.320Z,11.17
2017-10-31T11:57:36.517Z,11.26
2017-10-31T11:58:37.164Z,11.24
2017-10-31T11:59:36.694Z,11.2
2017-10-31T12:00:36.008Z,11.17
2017-10-31T12:01:37.098Z,11.27
2017-10-31T12:02:36.862Z,11.35
2017-10-31T12:03:36.773Z,11.31
2017-10-31T12:04:36.806Z,11.39
2017-10-31T12:05:35.915Z,11.3
2017-10-31T12:06:35.230Z,11.38
2017-10-31T12:07:35.845Z,11.41
2017-10-31T12:08:35.880Z,11.51
2017-10-31T12:09:35.802Z,11.42
2017-10-31T12:10:35.795Z,11.39
2017-10-31T12:11:35.763Z,11.45
2017-10-31T12:12:35.740Z,11.42
2017-10-31T12:13:35.395Z,11.44
2017-10-31T12:14:35.368Z,11.46
2017-10-31T12:15:35.677Z,11.42
2017-10-31T12:16:35.697Z,11.56
2017-10-31T12:17:35.624Z,11.56
2017-10-31T12:18:35.599Z,11.53
2017-10-31T12:19:35.574Z,11.56
2017-10-31T12:20:35.553Z,11.49
2017-10-31T12:21:35.530Z,11.59
2017-10-31T12:22:35.510Z,11.59
2017-10-31T12:23:35.485Z,11.69
2017-10-31T12:24:35.482Z,11.81
2017-10-31T12:25:35.441Z,11.77
2017-10-31T12:26:35.421Z,11.82
2017-10-31T12:27:35.391Z,11.97
2017-10-31T12:28:35.381Z,11.88
2017-10-31T12:29:35.355Z,11.96
2017-10-31T12:30:35.333Z,12
2017-10-31T12:31:35.319Z,12
2017-10-31T12:32:35.288Z,11.98
2017-10-31T12:33:35.265Z,11.84
2017-10-31T12:34:35.234Z,11.93
2017-10-31T12:35:35.234Z,12
2017-10-31T12:36:35.195Z,11.96
2017-10-31T12:37:35.173Z,11.96
2017-10-31T12:38:35.151Z,11.98
2017-10-31T12:39:35.135Z,11.98
2017-10-31T12:40:35.103Z,11.98
2017-10-31T12:41:34.439Z,12.01
2017-10-31T12:42:35.058Z,12.07
2017-10-31T12:43:35.049Z,12.08
2017-10-31T12:44:34.695Z,12.15
2017-10-31T12:45:34.680Z,12.11
2017-10-31T12:46:34.972Z,12.01
2017-10-31T12:47:34.952Z,12.13
2017-10-31T12:48:34.928Z,12.07
2017-10-31T12:49:34.911Z,12.08
2017-10-31T12:50:34.930Z,12.07
2017-10-31T12:51:34.861Z,12.03
2017-10-31T12:52:34.845Z,12.12
2017-10-31T12:53:34.817Z,12.04
2017-10-31T12:54:34.801Z,12.01
2017-10-31T12:55:34.766Z,12.04
2017-10-31T12:56:34.443Z,12
2017-10-31T12:57:34.407Z,11.96
2017-10-31T12:58:34.712Z,11.96
2017-10-31T12:59:34.665Z,11.9
2017-10-31T13:00:34.653Z,11.9
2017-10-31T13:01:34.634Z,11.82
2017-10-31T13:02:34.608Z,11.79
2017-10-31T13:03:34.587Z,11.96
2017-10-31T13:04:34.573Z,11.82
2017-10-31T13:05:34.539Z,11.93
2017-10-31T13:06:34.533Z,11.87
2017-10-31T13:07:34.505Z,11.81
2017-10-31T13:08:34.471Z,11.96
2017-10-31T13:09:34.468Z,12.01
2017-10-31T13:10:34.430Z,11.94
2017-10-31T13:11:34.424Z,11.93
2017-10-31T13:12:34.380Z,11.78
2017-10-31T13:13:34.362Z,11.94
2017-10-31T13:14:34.349Z,11.78
2017-10-31T13:15:34.313Z,11.82